sensor_id;sensor_type;location;lat;lon;timestamp;temperature;humidity
7814;DHT22;3952;48.364;16.022;2022-11-11T00:02:16;4.80;99.90
7814;DHT22;3952;48.364;16.022;2022-11-11T00:04:43;4.80;99.90
7814;DHT22;3952;48.364;16.022;2022-11-11T00:07:12;4.80;99.90
7814;DHT22;3952;48.364;16.022;2022-11-11T00:09:39;4.80;99.90
7814;DHT22;3952;48.364;16.022;2022-11-11T00:12:06;4.80;99.90
7814;DHT22;3952;48.364;16.022;2022-11-11T00:14:34;4.80;99.90
7814;DHT22;3952;48.364;16.022;2022-11-11T00:17:01;4.80;99.90
7814;DHT22;3952;48.364;16.022;2022-11-11T00:19:45;4.80;99.90
7814;DHT22;3952;48.364;16.022;2022-11-11T00:22:28;4.80;99.90
7814;DHT22;3952;48.364;16.022;2022-11-11T00:25:16;4.80;99.90
7814;DHT22;3952;48.364;16.022;2022-11-11T00:27:43;4.80;99.90
7814;DHT22;3952;48.364;16.022;2022-11-11T00:30:11;4.70;99.90
7814;DHT22;3952;48.364;16.022;2022-11-11T00:32:38;4.80;99.90
7814;DHT22;3952;48.364;16.022;2022-11-11T00:35:06;4.80;99.90
7814;DHT22;3952;48.364;16.022;2022-11-11T00:37:52;4.70;99.90
7814;DHT22;3952;48.364;16.022;2022-11-11T00:40:19;4.70;99.90
7814;DHT22;3952;48.364;16.022;2022-11-11T00:42:46;4.70;99.90
7814;DHT22;3952;48.364;16.022;2022-11-11T00:45:13;4.70;99.90
7814;DHT22;3952;48.364;16.022;2022-11-11T00:47:41;4.60;99.90
7814;DHT22;3952;48.364;16.022;2022-11-11T00:50:27;4.50;99.90
7814;DHT22;3952;48.364;16.022;2022-11-11T00:53:16;4.50;99.90
7814;DHT22;3952;48.364;16.022;2022-11-11T00:55:43;4.40;99.90
7814;DHT22;3952;48.364;16.022;2022-11-11T00:58:10;4.40;99.90
7814;DHT22;3952;48.364;16.022;2022-11-11T01:00:37;4.30;99.90
7814;DHT22;3952;48.364;16.022;2022-11-11T01:03:05;4.20;99.90
7814;DHT22;3952;48.364;16.022;2022-11-11T01:05:32;4.20;99.90
7814;DHT22;3952;48.364;16.022;2022-11-11T01:07:59;4.10;99.90
7814;DHT22;3952;48.364;16.022;2022-11-11T01:10:28;4.10;99.90
7814;DHT22;3952;48.364;16.022;2022-11-11T01:13:12;4.10;99.90
7814;DHT22;3952;48.364;16.022;2022-11-11T01:15:42;4.10;99.90
7814;DHT22;3952;48.364;16.022;2022-11-11T01:18:10;4.20;99.90
7814;DHT22;3952;48.364;16.022;2022-11-11T01:20:38;4.20;99.90
7814;DHT22;3952;48.364;16.022;2022-11-11T01:23:08;4.20;99.90
7814;DHT22;3952;48.364;16.022;2022-11-11T01:25:38;4.20;99.90
7814;DHT22;3952;48.364;16.022;2022-11-11T01:28:07;4.30;99.90
7814;DHT22;3952;48.364;16.022;2022-11-11T01:30:35;4.20;99.90
7814;DHT22;3952;48.364;16.022;2022-11-11T01:33:03;4.20;99.90
7814;DHT22;3952;48.364;16.022;2022-11-11T01:35:30;4.10;99.90
7814;DHT22;3952;48.364;16.022;2022-11-11T01:37:57;4.00;99.90
7814;DHT22;3952;48.364;16.022;2022-11-11T01:40:25;3.90;99.90
7814;DHT22;3952;48.364;16.022;2022-11-11T01:43:14;3.80;99.90
7814;DHT22;3952;48.364;16.022;2022-11-11T01:45:50;3.80;99.90
7814;DHT22;3952;48.364;16.022;2022-11-11T01:48:25;3.70;99.90
7814;DHT22;3952;48.364;16.022;2022-11-11T01:51:15;3.70;99.90
7814;DHT22;3952;48.364;16.022;2022-11-11T01:53:46;3.70;99.90
7814;DHT22;3952;48.364;16.022;2022-11-11T01:56:15;3.70;99.90
7814;DHT22;3952;48.364;16.022;2022-11-11T01:58:44;3.70;99.90
7814;DHT22;3952;48.364;16.022;2022-11-11T02:01:12;3.60;99.90
7814;DHT22;3952;48.364;16.022;2022-11-11T02:03:40;3.60;99.90
7814;DHT22;3952;48.364;16.022;2022-11-11T02:06:28;3.60;99.90
7814;DHT22;3952;48.364;16.022;2022-11-11T02:08:54;3.60;99.90
7814;DHT22;3952;48.364;16.022;2022-11-11T02:11:23;3.60;99.90
7814;DHT22;3952;48.364;16.022;2022-11-11T02:14:10;3.60;99.90
7814;DHT22;3952;48.364;16.022;2022-11-11T02:16:54;3.60;99.90
7814;DHT22;3952;48.364;16.022;2022-11-11T02:19:27;3.60;99.90
7814;DHT22;3952;48.364;16.022;2022-11-11T02:22:00;3.60;99.90
7814;DHT22;3952;48.364;16.022;2022-11-11T02:24:30;3.60;99.90
7814;DHT22;3952;48.364;16.022;2022-11-11T02:26:58;3.60;99.90
7814;DHT22;3952;48.364;16.022;2022-11-11T02:29:27;3.60;99.90
7814;DHT22;3952;48.364;16.022;2022-11-11T02:31:55;3.60;99.90
7814;DHT22;3952;48.364;16.022;2022-11-11T02:34:28;3.60;99.90
7814;DHT22;3952;48.364;16.022;2022-11-11T02:36:56;3.50;99.90
7814;DHT22;3952;48.364;16.022;2022-11-11T02:39:25;3.50;99.90
7814;DHT22;3952;48.364;16.022;2022-11-11T02:41:54;3.50;99.90
7814;DHT22;3952;48.364;16.022;2022-11-11T02:44:23;3.50;99.90
7814;DHT22;3952;48.364;16.022;2022-11-11T02:46:50;3.50;99.90
7814;DHT22;3952;48.364;16.022;2022-11-11T02:49:18;3.50;99.90
7814;DHT22;3952;48.364;16.022;2022-11-11T02:51:45;3.50;99.90
7814;DHT22;3952;48.364;16.022;2022-11-11T02:54:13;3.50;99.90
7814;DHT22;3952;48.364;16.022;2022-11-11T02:56:40;3.50;99.90
7814;DHT22;3952;48.364;16.022;2022-11-11T02:59:26;3.50;99.90
7814;DHT22;3952;48.364;16.022;2022-11-11T03:01:53;3.50;99.90
7814;DHT22;3952;48.364;16.022;2022-11-11T03:04:21;3.50;99.90
7814;DHT22;3952;48.364;16.022;2022-11-11T03:06:48;3.50;99.90
7814;DHT22;3952;48.364;16.022;2022-11-11T03:09:15;3.60;99.90
7814;DHT22;3952;48.364;16.022;2022-11-11T03:11:42;3.60;99.90
7814;DHT22;3952;48.364;16.022;2022-11-11T03:14:09;3.60;99.90
7814;DHT22;3952;48.364;16.022;2022-11-11T03:16:38;3.60;99.90
7814;DHT22;3952;48.364;16.022;2022-11-11T03:19:23;3.60;99.90
7814;DHT22;3952;48.364;16.022;2022-11-11T03:21:50;3.60;99.90
7814;DHT22;3952;48.364;16.022;2022-11-11T03:24:17;3.60;99.90
7814;DHT22;3952;48.364;16.022;2022-11-11T03:26:44;3.60;99.90
7814;DHT22;3952;48.364;16.022;2022-11-11T03:29:11;3.70;99.90
7814;DHT22;3952;48.364;16.022;2022-11-11T03:31:39;3.70;99.90
7814;DHT22;3952;48.364;16.022;2022-11-11T03:34:07;3.70;99.90
7814;DHT22;3952;48.364;16.022;2022-11-11T03:36:46;3.70;99.90
7814;DHT22;3952;48.364;16.022;2022-11-11T03:39:31;3.80;99.90
7814;DHT22;3952;48.364;16.022;2022-11-11T03:41:58;3.90;99.90
7814;DHT22;3952;48.364;16.022;2022-11-11T03:44:25;3.90;99.90
7814;DHT22;3952;48.364;16.022;2022-11-11T03:46:54;3.90;99.90
7814;DHT22;3952;48.364;16.022;2022-11-11T03:49:25;3.90;99.90
7814;DHT22;3952;48.364;16.022;2022-11-11T03:51:52;4.00;99.90
7814;DHT22;3952;48.364;16.022;2022-11-11T03:54:19;4.00;99.90
7814;DHT22;3952;48.364;16.022;2022-11-11T03:56:46;4.00;99.90
7814;DHT22;3952;48.364;16.022;2022-11-11T03:59:14;4.00;99.90
7814;DHT22;3952;48.364;16.022;2022-11-11T04:01:41;4.10;99.90
7814;DHT22;3952;48.364;16.022;2022-11-11T04:04:27;4.10;99.90
7814;DHT22;3952;48.364;16.022;2022-11-11T04:07:12;4.10;99.90
7814;DHT22;3952;48.364;16.022;2022-11-11T04:09:56;4.10;99.90
7814;DHT22;3952;48.364;16.022;2022-11-11T04:12:42;4.10;99.90
7814;DHT22;3952;48.364;16.022;2022-11-11T04:15:26;4.20;99.90
7814;DHT22;3952;48.364;16.022;2022-11-11T04:18:11;4.20;99.90
7814;DHT22;3952;48.364;16.022;2022-11-11T04:20:42;4.20;99.90
7814;DHT22;3952;48.364;16.022;2022-11-11T04:23:27;4.20;99.90
7814;DHT22;3952;48.364;16.022;2022-11-11T04:25:54;4.30;99.90
7814;DHT22;3952;48.364;16.022;2022-11-11T04:28:21;4.30;99.90
7814;DHT22;3952;48.364;16.022;2022-11-11T04:31:06;4.30;99.90
7814;DHT22;3952;48.364;16.022;2022-11-11T04:33:33;4.40;99.90
7814;DHT22;3952;48.364;16.022;2022-11-11T04:36:02;4.40;99.90
7814;DHT22;3952;48.364;16.022;2022-11-11T04:38:29;4.40;99.90
7814;DHT22;3952;48.364;16.022;2022-11-11T04:41:14;4.40;99.90
7814;DHT22;3952;48.364;16.022;2022-11-11T04:43:41;4.40;99.90
7814;DHT22;3952;48.364;16.022;2022-11-11T04:46:22;4.40;99.90
7814;DHT22;3952;48.364;16.022;2022-11-11T04:48:49;4.50;99.90
7814;DHT22;3952;48.364;16.022;2022-11-11T04:51:19;4.40;99.90
7814;DHT22;3952;48.364;16.022;2022-11-11T04:54:06;4.40;99.90
7814;DHT22;3952;48.364;16.022;2022-11-11T04:56:33;4.50;99.90
7814;DHT22;3952;48.364;16.022;2022-11-11T04:59:15;4.50;99.90
7814;DHT22;3952;48.364;16.022;2022-11-11T05:01:42;4.50;99.90
7814;DHT22;3952;48.364;16.022;2022-11-11T05:04:27;4.50;99.90
7814;DHT22;3952;48.364;16.022;2022-11-11T05:06:56;4.60;99.90
7814;DHT22;3952;48.364;16.022;2022-11-11T05:09:40;4.60;99.90
7814;DHT22;3952;48.364;16.022;2022-11-11T05:12:07;4.60;99.90
7814;DHT22;3952;48.364;16.022;2022-11-11T05:14:35;4.60;99.90
7814;DHT22;3952;48.364;16.022;2022-11-11T05:17:19;4.60;99.90
7814;DHT22;3952;48.364;16.022;2022-11-11T05:20:08;4.60;99.90
7814;DHT22;3952;48.364;16.022;2022-11-11T05:22:54;4.60;99.90
7814;DHT22;3952;48.364;16.022;2022-11-11T05:25:21;4.60;99.90
7814;DHT22;3952;48.364;16.022;2022-11-11T05:27:51;4.60;99.90
7814;DHT22;3952;48.364;16.022;2022-11-11T05:30:20;4.60;99.90
7814;DHT22;3952;48.364;16.022;2022-11-11T05:32:48;4.60;99.90
7814;DHT22;3952;48.364;16.022;2022-11-11T05:35:15;4.60;99.90
7814;DHT22;3952;48.364;16.022;2022-11-11T05:37:43;4.60;99.90
7814;DHT22;3952;48.364;16.022;2022-11-11T05:40:33;4.60;99.90
7814;DHT22;3952;48.364;16.022;2022-11-11T05:43:00;4.70;99.90
7814;DHT22;3952;48.364;16.022;2022-11-11T05:45:27;4.70;99.90
7814;DHT22;3952;48.364;16.022;2022-11-11T05:47:56;4.70;99.90
7814;DHT22;3952;48.364;16.022;2022-11-11T05:50:26;4.70;99.90
7814;DHT22;3952;48.364;16.022;2022-11-11T05:52:53;4.70;99.90
7814;DHT22;3952;48.364;16.022;2022-11-11T05:55:21;4.70;99.90
7814;DHT22;3952;48.364;16.022;2022-11-11T05:57:49;4.70;99.90
7814;DHT22;3952;48.364;16.022;2022-11-11T06:00:17;4.70;99.90
7814;DHT22;3952;48.364;16.022;2022-11-11T06:02:45;4.70;99.90
7814;DHT22;3952;48.364;16.022;2022-11-11T06:05:12;4.70;99.90
7814;DHT22;3952;48.364;16.022;2022-11-11T06:07:39;4.70;99.90
7814;DHT22;3952;48.364;16.022;2022-11-11T06:10:08;4.70;99.90
7814;DHT22;3952;48.364;16.022;2022-11-11T06:12:54;4.70;99.90
7814;DHT22;3952;48.364;16.022;2022-11-11T06:15:38;4.80;99.90
7814;DHT22;3952;48.364;16.022;2022-11-11T06:18:07;4.70;99.90
7814;DHT22;3952;48.364;16.022;2022-11-11T06:20:34;4.80;99.90
7814;DHT22;3952;48.364;16.022;2022-11-11T06:23:02;4.80;99.90
7814;DHT22;3952;48.364;16.022;2022-11-11T06:25:31;4.80;99.90
7814;DHT22;3952;48.364;16.022;2022-11-11T06:28:17;4.80;99.90
7814;DHT22;3952;48.364;16.022;2022-11-11T06:30:45;4.90;99.90
7814;DHT22;3952;48.364;16.022;2022-11-11T06:33:12;4.90;99.90
7814;DHT22;3952;48.364;16.022;2022-11-11T06:35:43;4.90;99.90
7814;DHT22;3952;48.364;16.022;2022-11-11T06:38:10;4.90;99.90
7814;DHT22;3952;48.364;16.022;2022-11-11T06:40:37;4.90;99.90
7814;DHT22;3952;48.364;16.022;2022-11-11T06:43:05;4.90;99.90
7814;DHT22;3952;48.364;16.022;2022-11-11T06:45:34;4.90;99.90
7814;DHT22;3952;48.364;16.022;2022-11-11T06:48:01;4.90;99.90
7814;DHT22;3952;48.364;16.022;2022-11-11T06:50:28;4.90;99.90
7814;DHT22;3952;48.364;16.022;2022-11-11T06:52:56;5.00;99.90
7814;DHT22;3952;48.364;16.022;2022-11-11T06:55:23;5.00;99.90
7814;DHT22;3952;48.364;16.022;2022-11-11T06:57:50;5.00;99.90
7814;DHT22;3952;48.364;16.022;2022-11-11T07:00:18;5.00;99.90
7814;DHT22;3952;48.364;16.022;2022-11-11T07:02:46;5.00;99.90
7814;DHT22;3952;48.364;16.022;2022-11-11T07:05:21;5.00;99.90
7814;DHT22;3952;48.364;16.022;2022-11-11T07:07:48;5.00;99.90
7814;DHT22;3952;48.364;16.022;2022-11-11T07:10:16;5.10;99.90
7814;DHT22;3952;48.364;16.022;2022-11-11T07:12:43;5.10;99.90
7814;DHT22;3952;48.364;16.022;2022-11-11T07:15:10;5.10;99.90
7814;DHT22;3952;48.364;16.022;2022-11-11T07:17:38;5.20;99.90
7814;DHT22;3952;48.364;16.022;2022-11-11T07:20:08;5.20;99.90
7814;DHT22;3952;48.364;16.022;2022-11-11T07:22:35;5.20;99.90
7814;DHT22;3952;48.364;16.022;2022-11-11T07:25:04;5.20;99.90
7814;DHT22;3952;48.364;16.022;2022-11-11T07:27:31;5.30;99.90
7814;DHT22;3952;48.364;16.022;2022-11-11T07:29:58;5.20;99.90
7814;DHT22;3952;48.364;16.022;2022-11-11T07:32:25;5.20;99.90
7814;DHT22;3952;48.364;16.022;2022-11-11T07:34:53;5.30;99.90
7814;DHT22;3952;48.364;16.022;2022-11-11T07:37:21;5.30;99.90
7814;DHT22;3952;48.364;16.022;2022-11-11T07:39:49;5.40;99.90
7814;DHT22;3952;48.364;16.022;2022-11-11T07:42:16;5.40;99.90
7814;DHT22;3952;48.364;16.022;2022-11-11T07:44:43;5.50;99.90
7814;DHT22;3952;48.364;16.022;2022-11-11T07:47:10;5.50;99.90
7814;DHT22;3952;48.364;16.022;2022-11-11T07:49:38;5.60;99.90
7814;DHT22;3952;48.364;16.022;2022-11-11T07:52:05;5.60;99.90
7814;DHT22;3952;48.364;16.022;2022-11-11T07:54:34;5.70;99.90
7814;DHT22;3952;48.364;16.022;2022-11-11T07:57:01;5.70;99.90
7814;DHT22;3952;48.364;16.022;2022-11-11T07:59:28;5.70;99.90
7814;DHT22;3952;48.364;16.022;2022-11-11T08:01:55;5.80;99.90
7814;DHT22;3952;48.364;16.022;2022-11-11T08:04:22;5.80;99.90
7814;DHT22;3952;48.364;16.022;2022-11-11T08:06:49;5.80;99.90
7814;DHT22;3952;48.364;16.022;2022-11-11T08:09:17;5.90;99.90
7814;DHT22;3952;48.364;16.022;2022-11-11T08:11:45;5.90;99.90
7814;DHT22;3952;48.364;16.022;2022-11-11T08:14:30;6.00;99.90
7814;DHT22;3952;48.364;16.022;2022-11-11T08:16:57;6.00;99.90
7814;DHT22;3952;48.364;16.022;2022-11-11T08:19:24;6.10;99.90
7814;DHT22;3952;48.364;16.022;2022-11-11T08:21:51;6.20;99.90
7814;DHT22;3952;48.364;16.022;2022-11-11T08:24:19;6.30;99.90
7814;DHT22;3952;48.364;16.022;2022-11-11T08:26:48;6.40;99.90
7814;DHT22;3952;48.364;16.022;2022-11-11T08:29:15;6.40;99.90
7814;DHT22;3952;48.364;16.022;2022-11-11T08:31:42;6.40;99.90
7814;DHT22;3952;48.364;16.022;2022-11-11T08:34:10;6.50;99.90
7814;DHT22;3952;48.364;16.022;2022-11-11T08:36:37;6.60;99.90
7814;DHT22;3952;48.364;16.022;2022-11-11T08:39:04;6.60;99.90
7814;DHT22;3952;48.364;16.022;2022-11-11T08:41:32;6.70;99.90
7814;DHT22;3952;48.364;16.022;2022-11-11T08:44:00;6.70;99.90
7814;DHT22;3952;48.364;16.022;2022-11-11T08:46:29;6.80;99.90
7814;DHT22;3952;48.364;16.022;2022-11-11T08:48:56;6.90;99.90
7814;DHT22;3952;48.364;16.022;2022-11-11T08:51:23;7.00;99.90
7814;DHT22;3952;48.364;16.022;2022-11-11T08:53:51;7.00;99.90
7814;DHT22;3952;48.364;16.022;2022-11-11T08:56:18;7.10;99.90
7814;DHT22;3952;48.364;16.022;2022-11-11T08:58:45;7.20;99.90
7814;DHT22;3952;48.364;16.022;2022-11-11T09:01:14;7.40;99.90
7814;DHT22;3952;48.364;16.022;2022-11-11T09:03:41;7.60;99.90
7814;DHT22;3952;48.364;16.022;2022-11-11T09:06:11;7.90;99.90
7814;DHT22;3952;48.364;16.022;2022-11-11T09:08:41;8.10;99.90
7814;DHT22;3952;48.364;16.022;2022-11-11T09:11:08;8.30;99.90
7814;DHT22;3952;48.364;16.022;2022-11-11T09:13:35;8.50;99.90
7814;DHT22;3952;48.364;16.022;2022-11-11T09:16:02;8.70;99.90
7814;DHT22;3952;48.364;16.022;2022-11-11T09:18:31;8.90;99.90
7814;DHT22;3952;48.364;16.022;2022-11-11T09:20:58;9.10;99.90
7814;DHT22;3952;48.364;16.022;2022-11-11T09:23:26;9.50;99.90
7814;DHT22;3952;48.364;16.022;2022-11-11T09:25:53;10.00;99.90
7814;DHT22;3952;48.364;16.022;2022-11-11T09:28:20;10.50;99.90
7814;DHT22;3952;48.364;16.022;2022-11-11T09:30:47;10.90;99.90
7814;DHT22;3952;48.364;16.022;2022-11-11T09:33:14;11.20;99.90
7814;DHT22;3952;48.364;16.022;2022-11-11T09:35:45;11.40;99.90
7814;DHT22;3952;48.364;16.022;2022-11-11T09:38:12;11.50;99.90
7814;DHT22;3952;48.364;16.022;2022-11-11T09:40:48;11.70;99.90
7814;DHT22;3952;48.364;16.022;2022-11-11T09:43:27;11.50;99.90
7814;DHT22;3952;48.364;16.022;2022-11-11T09:46:16;11.40;99.90
7814;DHT22;3952;48.364;16.022;2022-11-11T09:51:47;11.20;99.90
7814;DHT22;3952;48.364;16.022;2022-11-11T09:54:21;11.30;99.90
7814;DHT22;3952;48.364;16.022;2022-11-11T09:56:52;11.30;99.90
7814;DHT22;3952;48.364;16.022;2022-11-11T09:59:23;11.30;99.90
7814;DHT22;3952;48.364;16.022;2022-11-11T10:01:55;11.30;99.90
7814;DHT22;3952;48.364;16.022;2022-11-11T10:04:29;11.30;99.90
7814;DHT22;3952;48.364;16.022;2022-11-11T10:07:05;11.20;99.90
7814;DHT22;3952;48.364;16.022;2022-11-11T10:09:39;11.10;99.90
7814;DHT22;3952;48.364;16.022;2022-11-11T10:12:10;11.10;99.90
7814;DHT22;3952;48.364;16.022;2022-11-11T10:14:40;11.10;99.90
7814;DHT22;3952;48.364;16.022;2022-11-11T10:17:16;11.10;99.90
7814;DHT22;3952;48.364;16.022;2022-11-11T10:19:57;11.30;99.90
7814;DHT22;3952;48.364;16.022;2022-11-11T10:22:34;11.40;99.90
7814;DHT22;3952;48.364;16.022;2022-11-11T10:25:19;11.30;99.90
7814;DHT22;3952;48.364;16.022;2022-11-11T10:27:49;11.20;99.90
7814;DHT22;3952;48.364;16.022;2022-11-11T10:30:20;11.20;99.90
7814;DHT22;3952;48.364;16.022;2022-11-11T10:32:52;11.00;99.90
7814;DHT22;3952;48.364;16.022;2022-11-11T10:35:22;11.00;99.90
7814;DHT22;3952;48.364;16.022;2022-11-11T10:38:10;10.90;99.90
7814;DHT22;3952;48.364;16.022;2022-11-11T10:40:43;10.80;99.90
7814;DHT22;3952;48.364;16.022;2022-11-11T10:43:20;10.80;99.90
7814;DHT22;3952;48.364;16.022;2022-11-11T10:45:56;10.90;99.90
7814;DHT22;3952;48.364;16.022;2022-11-11T10:48:34;11.00;99.90
7814;DHT22;3952;48.364;16.022;2022-11-11T10:51:05;11.00;99.90
7814;DHT22;3952;48.364;16.022;2022-11-11T10:53:37;11.00;99.90
7814;DHT22;3952;48.364;16.022;2022-11-11T10:56:12;10.90;99.90
7814;DHT22;3952;48.364;16.022;2022-11-11T10:58:46;10.80;99.90
7814;DHT22;3952;48.364;16.022;2022-11-11T11:01:21;10.70;99.90
7814;DHT22;3952;48.364;16.022;2022-11-11T11:03:56;10.60;99.90
7814;DHT22;3952;48.364;16.022;2022-11-11T11:06:26;10.60;99.90
7814;DHT22;3952;48.364;16.022;2022-11-11T11:09:00;10.60;99.90
7814;DHT22;3952;48.364;16.022;2022-11-11T11:11:32;10.60;99.90
7814;DHT22;3952;48.364;16.022;2022-11-11T11:14:07;10.60;99.90
7814;DHT22;3952;48.364;16.022;2022-11-11T11:16:39;10.60;99.90
7814;DHT22;3952;48.364;16.022;2022-11-11T11:19:20;10.70;99.90
7814;DHT22;3952;48.364;16.022;2022-11-11T11:21:49;10.70;99.90
7814;DHT22;3952;48.364;16.022;2022-11-11T11:24:23;10.70;99.90
7814;DHT22;3952;48.364;16.022;2022-11-11T11:26:52;10.70;99.90
7814;DHT22;3952;48.364;16.022;2022-11-11T11:29:27;10.70;99.90
7814;DHT22;3952;48.364;16.022;2022-11-11T11:31:55;10.70;99.90
7814;DHT22;3952;48.364;16.022;2022-11-11T11:34:45;10.70;99.90
7814;DHT22;3952;48.364;16.022;2022-11-11T11:37:12;10.60;99.90
7814;DHT22;3952;48.364;16.022;2022-11-11T11:39:41;10.60;99.90
7814;DHT22;3952;48.364;16.022;2022-11-11T11:42:26;10.70;99.90
7814;DHT22;3952;48.364;16.022;2022-11-11T11:44:54;10.70;99.90
7814;DHT22;3952;48.364;16.022;2022-11-11T11:47:38;10.70;99.90
7814;DHT22;3952;48.364;16.022;2022-11-11T11:50:22;10.70;99.90
7814;DHT22;3952;48.364;16.022;2022-11-11T11:53:00;10.80;99.90
7814;DHT22;3952;48.364;16.022;2022-11-11T11:55:34;10.70;99.90
7814;DHT22;3952;48.364;16.022;2022-11-11T11:58:17;10.70;99.90
7814;DHT22;3952;48.364;16.022;2022-11-11T12:00:53;10.80;99.90
7814;DHT22;3952;48.364;16.022;2022-11-11T12:03:37;10.80;99.90
7814;DHT22;3952;48.364;16.022;2022-11-11T12:06:13;10.90;99.90
7814;DHT22;3952;48.364;16.022;2022-11-11T12:08:54;11.00;99.90
7814;DHT22;3952;48.364;16.022;2022-11-11T12:11:32;11.00;99.90
7814;DHT22;3952;48.364;16.022;2022-11-11T12:14:31;11.00;99.90
7814;DHT22;3952;48.364;16.022;2022-11-11T12:17:09;11.00;99.90
7814;DHT22;3952;48.364;16.022;2022-11-11T12:19:47;11.00;99.90
7814;DHT22;3952;48.364;16.022;2022-11-11T12:22:28;11.10;99.90
7814;DHT22;3952;48.364;16.022;2022-11-11T12:25:11;11.20;99.90
7814;DHT22;3952;48.364;16.022;2022-11-11T12:27:47;11.20;99.90
7814;DHT22;3952;48.364;16.022;2022-11-11T12:30:18;11.30;99.90
7814;DHT22;3952;48.364;16.022;2022-11-11T12:33:05;11.30;99.90
7814;DHT22;3952;48.364;16.022;2022-11-11T12:35:52;11.40;99.90
7814;DHT22;3952;48.364;16.022;2022-11-11T12:38:45;11.50;99.90
7814;DHT22;3952;48.364;16.022;2022-11-11T12:41:23;11.60;99.90
7814;DHT22;3952;48.364;16.022;2022-11-11T12:43:59;11.60;99.90
7814;DHT22;3952;48.364;16.022;2022-11-11T12:46:37;11.60;99.90
7814;DHT22;3952;48.364;16.022;2022-11-11T12:49:17;11.60;99.90
7814;DHT22;3952;48.364;16.022;2022-11-11T12:51:55;11.70;99.90
7814;DHT22;3952;48.364;16.022;2022-11-11T12:54:33;11.80;99.90
7814;DHT22;3952;48.364;16.022;2022-11-11T12:57:12;11.70;99.90
7814;DHT22;3952;48.364;16.022;2022-11-11T13:00:07;11.80;99.90
7814;DHT22;3952;48.364;16.022;2022-11-11T13:02:55;11.80;99.90
7814;DHT22;3952;48.364;16.022;2022-11-11T13:05:28;11.90;99.90
7814;DHT22;3952;48.364;16.022;2022-11-11T13:08:25;11.90;99.90
7814;DHT22;3952;48.364;16.022;2022-11-11T13:11:02;12.00;99.90
7814;DHT22;3952;48.364;16.022;2022-11-11T13:13:48;12.00;99.90
7814;DHT22;3952;48.364;16.022;2022-11-11T13:16:21;12.00;99.90
7814;DHT22;3952;48.364;16.022;2022-11-11T13:18:54;12.00;99.90
7814;DHT22;3952;48.364;16.022;2022-11-11T13:21:28;12.00;99.90
7814;DHT22;3952;48.364;16.022;2022-11-11T13:23:57;11.90;99.90
7814;DHT22;3952;48.364;16.022;2022-11-11T13:26:29;11.90;99.90
7814;DHT22;3952;48.364;16.022;2022-11-11T13:29:14;11.90;99.90
7814;DHT22;3952;48.364;16.022;2022-11-11T13:31:46;11.90;99.90
7814;DHT22;3952;48.364;16.022;2022-11-11T13:34:15;12.00;99.90
7814;DHT22;3952;48.364;16.022;2022-11-11T13:36:47;12.00;99.90
7814;DHT22;3952;48.364;16.022;2022-11-11T13:39:24;12.00;99.90
7814;DHT22;3952;48.364;16.022;2022-11-11T13:41:54;12.00;99.90
7814;DHT22;3952;48.364;16.022;2022-11-11T13:44:24;12.00;99.90
7814;DHT22;3952;48.364;16.022;2022-11-11T13:46:59;12.00;99.90
7814;DHT22;3952;48.364;16.022;2022-11-11T13:49:31;12.10;99.90
7814;DHT22;3952;48.364;16.022;2022-11-11T13:52:01;12.10;99.90
7814;DHT22;3952;48.364;16.022;2022-11-11T13:54:31;12.10;99.90
7814;DHT22;3952;48.364;16.022;2022-11-11T13:57:05;12.10;99.90
7814;DHT22;3952;48.364;16.022;2022-11-11T13:59:37;12.10;99.90
7814;DHT22;3952;48.364;16.022;2022-11-11T14:02:29;12.10;99.90
7814;DHT22;3952;48.364;16.022;2022-11-11T14:05:16;12.10;99.90
7814;DHT22;3952;48.364;16.022;2022-11-11T14:07:48;12.10;99.90
7814;DHT22;3952;48.364;16.022;2022-11-11T14:10:51;12.10;99.90
7814;DHT22;3952;48.364;16.022;2022-11-11T14:13:40;12.10;99.90
7814;DHT22;3952;48.364;16.022;2022-11-11T14:16:11;12.10;99.90
7814;DHT22;3952;48.364;16.022;2022-11-11T14:18:45;12.10;99.90
7814;DHT22;3952;48.364;16.022;2022-11-11T14:24:22;12.10;99.90
7814;DHT22;3952;48.364;16.022;2022-11-11T14:27:00;12.10;99.90
7814;DHT22;3952;48.364;16.022;2022-11-11T14:29:30;12.10;99.90
7814;DHT22;3952;48.364;16.022;2022-11-11T14:32:30;12.10;99.90
7814;DHT22;3952;48.364;16.022;2022-11-11T14:35:13;12.10;99.90
7814;DHT22;3952;48.364;16.022;2022-11-11T14:40:36;12.10;99.90
7814;DHT22;3952;48.364;16.022;2022-11-11T14:46:07;12.00;99.90
7814;DHT22;3952;48.364;16.022;2022-11-11T14:51:54;11.90;99.90
7814;DHT22;3952;48.364;16.022;2022-11-11T14:54:32;11.90;99.90
7814;DHT22;3952;48.364;16.022;2022-11-11T14:57:05;11.80;99.90
7814;DHT22;3952;48.364;16.022;2022-11-11T14:59:34;11.80;99.90
7814;DHT22;3952;48.364;16.022;2022-11-11T15:02:03;11.80;99.90
7814;DHT22;3952;48.364;16.022;2022-11-11T15:04:37;11.70;99.90
7814;DHT22;3952;48.364;16.022;2022-11-11T15:07:27;11.70;99.90
7814;DHT22;3952;48.364;16.022;2022-11-11T15:10:17;11.60;99.90
7814;DHT22;3952;48.364;16.022;2022-11-11T15:16:01;11.50;99.90
7814;DHT22;3952;48.364;16.022;2022-11-11T15:18:55;11.40;99.90
7814;DHT22;3952;48.364;16.022;2022-11-11T15:21:31;11.20;99.90
7814;DHT22;3952;48.364;16.022;2022-11-11T15:24:10;11.10;99.90
7814;DHT22;3952;48.364;16.022;2022-11-11T15:26:47;11.00;99.90
7814;DHT22;3952;48.364;16.022;2022-11-11T15:29:29;11.00;99.90
7814;DHT22;3952;48.364;16.022;2022-11-11T15:32:08;10.90;99.90
7814;DHT22;3952;48.364;16.022;2022-11-11T15:34:44;11.10;99.90
7814;DHT22;3952;48.364;16.022;2022-11-11T15:37:14;10.80;99.90
7814;DHT22;3952;48.364;16.022;2022-11-11T15:39:45;10.70;99.90
7814;DHT22;3952;48.364;16.022;2022-11-11T15:42:21;10.60;99.90
7814;DHT22;3952;48.364;16.022;2022-11-11T15:44:50;10.50;99.90
7814;DHT22;3952;48.364;16.022;2022-11-11T15:47:18;10.40;99.90
7814;DHT22;3952;48.364;16.022;2022-11-11T15:49:48;10.30;99.90
7814;DHT22;3952;48.364;16.022;2022-11-11T15:52:27;10.20;99.90
7814;DHT22;3952;48.364;16.022;2022-11-11T15:54:57;10.20;99.90
7814;DHT22;3952;48.364;16.022;2022-11-11T15:57:27;10.10;99.90
7814;DHT22;3952;48.364;16.022;2022-11-11T15:59:55;10.00;99.90
7814;DHT22;3952;48.364;16.022;2022-11-11T16:02:24;9.90;99.90
7814;DHT22;3952;48.364;16.022;2022-11-11T16:04:55;9.80;99.90
7814;DHT22;3952;48.364;16.022;2022-11-11T16:07:24;9.70;99.90
7814;DHT22;3952;48.364;16.022;2022-11-11T16:09:56;9.70;99.90
7814;DHT22;3952;48.364;16.022;2022-11-11T16:12:27;9.60;99.90
7814;DHT22;3952;48.364;16.022;2022-11-11T16:14:57;9.60;99.90
7814;DHT22;3952;48.364;16.022;2022-11-11T16:17:33;9.50;99.90
7814;DHT22;3952;48.364;16.022;2022-11-11T16:20:04;9.50;99.90
7814;DHT22;3952;48.364;16.022;2022-11-11T16:22:35;9.50;99.90
7814;DHT22;3952;48.364;16.022;2022-11-11T16:25:10;9.50;99.90
7814;DHT22;3952;48.364;16.022;2022-11-11T16:27:38;9.50;99.90
7814;DHT22;3952;48.364;16.022;2022-11-11T16:30:27;9.40;99.90
7814;DHT22;3952;48.364;16.022;2022-11-11T16:32:56;9.50;99.90
7814;DHT22;3952;48.364;16.022;2022-11-11T16:35:27;9.40;99.90
7814;DHT22;3952;48.364;16.022;2022-11-11T16:37:55;9.40;99.90
7814;DHT22;3952;48.364;16.022;2022-11-11T16:40:36;9.30;99.90
7814;DHT22;3952;48.364;16.022;2022-11-11T16:43:25;9.20;99.90
7814;DHT22;3952;48.364;16.022;2022-11-11T16:45:58;9.00;99.90
7814;DHT22;3952;48.364;16.022;2022-11-11T16:48:43;9.00;99.90
7814;DHT22;3952;48.364;16.022;2022-11-11T16:51:17;8.90;99.90